sensor_id;sensor_type;location;lat;lon;timestamp;temperature;humidity
6379;DHT22;3222;48.858;10.128;2022-08-07T00:00:30;18.60;73.60
6379;DHT22;3222;48.858;10.128;2022-08-07T00:02:56;18.50;73.00
6379;DHT22;3222;48.858;10.128;2022-08-07T00:05:23;18.50;73.50
6379;DHT22;3222;48.858;10.128;2022-08-07T00:07:49;18.50;73.70
6379;DHT22;3222;48.858;10.128;2022-08-07T00:10:15;18.50;73.60
6379;DHT22;3222;48.858;10.128;2022-08-07T00:12:41;18.50;73.70
6379;DHT22;3222;48.858;10.128;2022-08-07T00:15:09;18.40;74.40
6379;DHT22;3222;48.858;10.128;2022-08-07T00:17:35;18.40;75.10
6379;DHT22;3222;48.858;10.128;2022-08-07T00:20:00;18.30;75.00
6379;DHT22;3222;48.858;10.128;2022-08-07T00:22:26;18.30;75.10
6379;DHT22;3222;48.858;10.128;2022-08-07T00:24:52;18.30;75.40
6379;DHT22;3222;48.858;10.128;2022-08-07T00:27:17;18.20;75.90
6379;DHT22;3222;48.858;10.128;2022-08-07T00:29:43;18.20;76.10
6379;DHT22;3222;48.858;10.128;2022-08-07T00:32:09;18.20;76.30
6379;DHT22;3222;48.858;10.128;2022-08-07T00:34:36;18.20;76.70
6379;DHT22;3222;48.858;10.128;2022-08-07T00:37:02;18.20;76.90
6379;DHT22;3222;48.858;10.128;2022-08-07T00:39:28;18.30;76.70
6379;DHT22;3222;48.858;10.128;2022-08-07T00:41:56;18.30;77.00
6379;DHT22;3222;48.858;10.128;2022-08-07T00:44:23;18.20;77.20
6379;DHT22;3222;48.858;10.128;2022-08-07T00:46:50;18.20;77.00
6379;DHT22;3222;48.858;10.128;2022-08-07T00:49:15;18.30;77.40
6379;DHT22;3222;48.858;10.128;2022-08-07T00:51:42;18.20;78.30
6379;DHT22;3222;48.858;10.128;2022-08-07T00:54:08;18.10;78.20
6379;DHT22;3222;48.858;10.128;2022-08-07T00:56:34;18.10;78.30
6379;DHT22;3222;48.858;10.128;2022-08-07T00:59:01;18.00;78.70
6379;DHT22;3222;48.858;10.128;2022-08-07T01:01:28;18.10;78.60
6379;DHT22;3222;48.858;10.128;2022-08-07T01:03:54;18.10;79.00
6379;DHT22;3222;48.858;10.128;2022-08-07T01:06:20;18.00;79.60
6379;DHT22;3222;48.858;10.128;2022-08-07T01:08:46;17.90;79.50
6379;DHT22;3222;48.858;10.128;2022-08-07T01:11:13;18.00;79.30
6379;DHT22;3222;48.858;10.128;2022-08-07T01:13:39;18.00;79.60
6379;DHT22;3222;48.858;10.128;2022-08-07T01:16:07;18.00;79.80
6379;DHT22;3222;48.858;10.128;2022-08-07T01:18:34;18.00;81.60
6379;DHT22;3222;48.858;10.128;2022-08-07T01:21:11;17.90;81.00
6379;DHT22;3222;48.858;10.128;2022-08-07T01:23:45;17.90;82.00
6379;DHT22;3222;48.858;10.128;2022-08-07T01:26:14;17.90;82.30
6379;DHT22;3222;48.858;10.128;2022-08-07T01:28:47;17.90;82.90
6379;DHT22;3222;48.858;10.128;2022-08-07T01:31:16;17.90;82.50
6379;DHT22;3222;48.858;10.128;2022-08-07T01:33:44;17.90;82.40
6379;DHT22;3222;48.858;10.128;2022-08-07T01:36:11;18.00;81.70
6379;DHT22;3222;48.858;10.128;2022-08-07T01:38:41;18.10;81.10
6379;DHT22;3222;48.858;10.128;2022-08-07T01:41:17;18.00;81.60
6379;DHT22;3222;48.858;10.128;2022-08-07T01:43:45;17.90;81.60
6379;DHT22;3222;48.858;10.128;2022-08-07T01:46:13;17.80;83.00
6379;DHT22;3222;48.858;10.128;2022-08-07T01:48:42;17.70;83.10
6379;DHT22;3222;48.858;10.128;2022-08-07T01:51:12;17.70;82.90
6379;DHT22;3222;48.858;10.128;2022-08-07T01:53:43;17.70;83.50
6379;DHT22;3222;48.858;10.128;2022-08-07T01:56:14;17.70;83.90
6379;DHT22;3222;48.858;10.128;2022-08-07T01:58:48;17.70;83.40
6379;DHT22;3222;48.858;10.128;2022-08-07T02:01:23;17.60;84.60
6379;DHT22;3222;48.858;10.128;2022-08-07T02:03:58;17.70;88.40
6379;DHT22;3222;48.858;10.128;2022-08-07T02:06:28;17.70;86.90
6379;DHT22;3222;48.858;10.128;2022-08-07T02:09:01;17.70;87.50
6379;DHT22;3222;48.858;10.128;2022-08-07T02:11:28;17.60;90.70
6379;DHT22;3222;48.858;10.128;2022-08-07T02:13:55;17.50;90.50
6379;DHT22;3222;48.858;10.128;2022-08-07T02:16:25;17.60;89.80
6379;DHT22;3222;48.858;10.128;2022-08-07T02:18:51;17.60;90.10
6379;DHT22;3222;48.858;10.128;2022-08-07T02:21:21;17.60;90.30
6379;DHT22;3222;48.858;10.128;2022-08-07T02:23:48;17.50;90.70
6379;DHT22;3222;48.858;10.128;2022-08-07T02:26:16;17.50;91.70
6379;DHT22;3222;48.858;10.128;2022-08-07T02:28:43;17.50;91.20
6379;DHT22;3222;48.858;10.128;2022-08-07T02:31:10;17.60;91.70
6379;DHT22;3222;48.858;10.128;2022-08-07T02:33:37;17.60;91.80
6379;DHT22;3222;48.858;10.128;2022-08-07T02:36:04;17.60;91.80
6379;DHT22;3222;48.858;10.128;2022-08-07T02:38:35;17.60;92.30
6379;DHT22;3222;48.858;10.128;2022-08-07T02:41:03;17.50;92.80
6379;DHT22;3222;48.858;10.128;2022-08-07T02:43:32;17.60;92.80
6379;DHT22;3222;48.858;10.128;2022-08-07T02:46:00;17.60;92.80
6379;DHT22;3222;48.858;10.128;2022-08-07T02:48:29;17.60;93.30
6379;DHT22;3222;48.858;10.128;2022-08-07T02:50:58;17.60;93.50
6379;DHT22;3222;48.858;10.128;2022-08-07T02:53:32;17.60;93.40
6379;DHT22;3222;48.858;10.128;2022-08-07T02:56:00;17.50;93.40
6379;DHT22;3222;48.858;10.128;2022-08-07T02:58:28;17.50;93.30
6379;DHT22;3222;48.858;10.128;2022-08-07T03:00:57;17.50;93.20
6379;DHT22;3222;48.858;10.128;2022-08-07T03:03:26;17.60;93.20
6379;DHT22;3222;48.858;10.128;2022-08-07T03:05:53;17.50;93.70
6379;DHT22;3222;48.858;10.128;2022-08-07T03:08:21;17.50;93.40
6379;DHT22;3222;48.858;10.128;2022-08-07T03:10:50;17.50;93.70
6379;DHT22;3222;48.858;10.128;2022-08-07T03:13:22;17.50;93.90
6379;DHT22;3222;48.858;10.128;2022-08-07T03:15:50;17.50;93.70
6379;DHT22;3222;48.858;10.128;2022-08-07T03:18:16;17.50;93.40
6379;DHT22;3222;48.858;10.128;2022-08-07T03:20:43;17.50;93.70
6379;DHT22;3222;48.858;10.128;2022-08-07T03:23:09;17.50;93.40
6379;DHT22;3222;48.858;10.128;2022-08-07T03:25:40;17.60;93.70
6379;DHT22;3222;48.858;10.128;2022-08-07T03:28:12;17.50;93.40
6379;DHT22;3222;48.858;10.128;2022-08-07T03:30:41;17.50;93.50
6379;DHT22;3222;48.858;10.128;2022-08-07T03:33:08;17.50;93.70
6379;DHT22;3222;48.858;10.128;2022-08-07T03:35:37;17.50;93.60
6379;DHT22;3222;48.858;10.128;2022-08-07T03:38:07;17.40;93.70
6379;DHT22;3222;48.858;10.128;2022-08-07T03:40:33;17.30;93.90
6379;DHT22;3222;48.858;10.128;2022-08-07T03:43:01;17.40;93.80
6379;DHT22;3222;48.858;10.128;2022-08-07T03:45:30;17.30;94.00
6379;DHT22;3222;48.858;10.128;2022-08-07T03:48:02;17.40;94.40
6379;DHT22;3222;48.858;10.128;2022-08-07T03:50:28;17.40;94.20
6379;DHT22;3222;48.858;10.128;2022-08-07T03:52:57;17.30;94.50
6379;DHT22;3222;48.858;10.128;2022-08-07T03:55:26;17.30;94.60
6379;DHT22;3222;48.858;10.128;2022-08-07T03:57:53;17.30;94.60
6379;DHT22;3222;48.858;10.128;2022-08-07T04:00:19;17.30;95.00
6379;DHT22;3222;48.858;10.128;2022-08-07T04:02:49;17.30;95.00
6379;DHT22;3222;48.858;10.128;2022-08-07T04:05:25;17.30;95.00
6379;DHT22;3222;48.858;10.128;2022-08-07T04:07:51;17.10;95.60
6379;DHT22;3222;48.858;10.128;2022-08-07T04:10:22;17.10;95.20
6379;DHT22;3222;48.858;10.128;2022-08-07T04:12:48;17.20;95.10
6379;DHT22;3222;48.858;10.128;2022-08-07T04:15:15;17.20;95.00
6379;DHT22;3222;48.858;10.128;2022-08-07T04:17:43;17.20;94.90
6379;DHT22;3222;48.858;10.128;2022-08-07T04:20:10;17.20;94.90
6379;DHT22;3222;48.858;10.128;2022-08-07T04:22:40;17.30;95.10
6379;DHT22;3222;48.858;10.128;2022-08-07T04:25:08;17.10;95.40
6379;DHT22;3222;48.858;10.128;2022-08-07T04:27:34;17.10;95.40
6379;DHT22;3222;48.858;10.128;2022-08-07T04:30:00;17.10;95.30
6379;DHT22;3222;48.858;10.128;2022-08-07T04:32:33;17.10;95.80
6379;DHT22;3222;48.858;10.128;2022-08-07T04:35:01;17.10;96.00
6379;DHT22;3222;48.858;10.128;2022-08-07T04:37:28;17.10;96.30
6379;DHT22;3222;48.858;10.128;2022-08-07T04:39:54;17.00;96.20
6379;DHT22;3222;48.858;10.128;2022-08-07T04:42:19;17.00;96.50
6379;DHT22;3222;48.858;10.128;2022-08-07T04:44:45;17.00;96.60
6379;DHT22;3222;48.858;10.128;2022-08-07T04:47:21;16.90;96.80
6379;DHT22;3222;48.858;10.128;2022-08-07T04:53:03;16.90;96.60
6379;DHT22;3222;48.858;10.128;2022-08-07T04:55:31;16.90;96.40
6379;DHT22;3222;48.858;10.128;2022-08-07T05:00:53;16.90;95.90
6379;DHT22;3222;48.858;10.128;2022-08-07T05:03:34;17.00;95.70
6379;DHT22;3222;48.858;10.128;2022-08-07T05:06:16;16.90;95.40
6379;DHT22;3222;48.858;10.128;2022-08-07T05:08:50;16.90;95.10
6379;DHT22;3222;48.858;10.128;2022-08-07T05:11:26;16.90;94.90
6379;DHT22;3222;48.858;10.128;2022-08-07T05:14:18;16.90;94.60
6379;DHT22;3222;48.858;10.128;2022-08-07T05:16:46;16.90;94.80
6379;DHT22;3222;48.858;10.128;2022-08-07T05:19:16;17.00;94.30
6379;DHT22;3222;48.858;10.128;2022-08-07T05:21:48;17.00;94.20
6379;DHT22;3222;48.858;10.128;2022-08-07T05:24:16;16.90;94.10
6379;DHT22;3222;48.858;10.128;2022-08-07T05:26:42;17.00;93.90
6379;DHT22;3222;48.858;10.128;2022-08-07T05:29:10;16.90;93.90
6379;DHT22;3222;48.858;10.128;2022-08-07T05:31:40;16.90;93.90
6379;DHT22;3222;48.858;10.128;2022-08-07T05:34:12;16.90;93.90
6379;DHT22;3222;48.858;10.128;2022-08-07T05:36:45;16.90;93.90
6379;DHT22;3222;48.858;10.128;2022-08-07T05:39:21;16.90;93.90
6379;DHT22;3222;48.858;10.128;2022-08-07T05:41:49;16.90;93.60
6379;DHT22;3222;48.858;10.128;2022-08-07T05:44:20;16.90;93.50
6379;DHT22;3222;48.858;10.128;2022-08-07T05:46:49;16.90;93.40
6379;DHT22;3222;48.858;10.128;2022-08-07T05:49:20;17.00;93.50
6379;DHT22;3222;48.858;10.128;2022-08-07T05:51:48;17.00;93.50
6379;DHT22;3222;48.858;10.128;2022-08-07T05:54:18;17.00;93.70
6379;DHT22;3222;48.858;10.128;2022-08-07T05:56:46;16.90;93.30
6379;DHT22;3222;48.858;10.128;2022-08-07T05:59:16;17.00;93.50
6379;DHT22;3222;48.858;10.128;2022-08-07T06:01:45;17.00;93.30
6379;DHT22;3222;48.858;10.128;2022-08-07T06:04:13;17.00;93.30
6379;DHT22;3222;48.858;10.128;2022-08-07T06:06:40;17.00;93.40
6379;DHT22;3222;48.858;10.128;2022-08-07T06:09:08;17.10;93.30
6379;DHT22;3222;48.858;10.128;2022-08-07T06:11:38;17.10;93.20
6379;DHT22;3222;48.858;10.128;2022-08-07T06:14:04;17.10;93.10
6379;DHT22;3222;48.858;10.128;2022-08-07T06:16:32;17.10;93.40
6379;DHT22;3222;48.858;10.128;2022-08-07T06:19:02;17.10;93.00
6379;DHT22;3222;48.858;10.128;2022-08-07T06:21:28;17.20;92.80
6379;DHT22;3222;48.858;10.128;2022-08-07T06:23:55;17.30;92.60
6379;DHT22;3222;48.858;10.128;2022-08-07T06:26:24;17.30;92.20
6379;DHT22;3222;48.858;10.128;2022-08-07T06:28:54;17.30;92.30
6379;DHT22;3222;48.858;10.128;2022-08-07T06:31:23;17.40;92.10
6379;DHT22;3222;48.858;10.128;2022-08-07T06:33:50;17.40;92.00
6379;DHT22;3222;48.858;10.128;2022-08-07T06:36:16;17.40;91.70
6379;DHT22;3222;48.858;10.128;2022-08-07T06:38:49;17.40;91.70
6379;DHT22;3222;48.858;10.128;2022-08-07T06:41:20;17.40;91.50
6379;DHT22;3222;48.858;10.128;2022-08-07T06:43:48;17.50;91.10
6379;DHT22;3222;48.858;10.128;2022-08-07T06:46:18;17.50;91.10
6379;DHT22;3222;48.858;10.128;2022-08-07T06:48:44;17.60;90.30
6379;DHT22;3222;48.858;10.128;2022-08-07T06:51:17;17.50;90.40
6379;DHT22;3222;48.858;10.128;2022-08-07T06:53:45;17.60;89.50
6379;DHT22;3222;48.858;10.128;2022-08-07T06:56:15;17.60;89.80
6379;DHT22;3222;48.858;10.128;2022-08-07T06:58:45;17.60;89.50
6379;DHT22;3222;48.858;10.128;2022-08-07T07:01:13;17.60;88.80
6379;DHT22;3222;48.858;10.128;2022-08-07T07:03:41;17.70;88.50
6379;DHT22;3222;48.858;10.128;2022-08-07T07:06:07;17.70;88.80
6379;DHT22;3222;48.858;10.128;2022-08-07T07:08:34;17.70;87.20
6379;DHT22;3222;48.858;10.128;2022-08-07T07:11:02;17.80;87.00
6379;DHT22;3222;48.858;10.128;2022-08-07T07:13:35;17.80;86.90
6379;DHT22;3222;48.858;10.128;2022-08-07T07:16:11;17.90;85.60
6379;DHT22;3222;48.858;10.128;2022-08-07T07:18:42;17.90;85.60
6379;DHT22;3222;48.858;10.128;2022-08-07T07:21:16;18.00;85.70
6379;DHT22;3222;48.858;10.128;2022-08-07T07:23:42;18.00;85.90
6379;DHT22;3222;48.858;10.128;2022-08-07T07:26:10;18.00;85.00
6379;DHT22;3222;48.858;10.128;2022-08-07T07:28:42;18.10;84.90
6379;DHT22;3222;48.858;10.128;2022-08-07T07:31:21;18.20;83.70
6379;DHT22;3222;48.858;10.128;2022-08-07T07:33:51;18.20;83.20
6379;DHT22;3222;48.858;10.128;2022-08-07T07:36:19;18.30;83.70
6379;DHT22;3222;48.858;10.128;2022-08-07T07:38:46;18.30;84.00
6379;DHT22;3222;48.858;10.128;2022-08-07T07:41:15;18.40;84.30
6379;DHT22;3222;48.858;10.128;2022-08-07T07:43:43;18.40;84.70
6379;DHT22;3222;48.858;10.128;2022-08-07T07:46:12;18.50;84.00
6379;DHT22;3222;48.858;10.128;2022-08-07T07:48:39;18.60;82.10
6379;DHT22;3222;48.858;10.128;2022-08-07T07:51:06;18.70;82.20
6379;DHT22;3222;48.858;10.128;2022-08-07T07:53:35;18.70;82.50
6379;DHT22;3222;48.858;10.128;2022-08-07T07:56:02;18.80;82.70
6379;DHT22;3222;48.858;10.128;2022-08-07T07:58:31;18.80;81.80
6379;DHT22;3222;48.858;10.128;2022-08-07T08:00:57;18.90;82.00
6379;DHT22;3222;48.858;10.128;2022-08-07T08:03:23;18.90;82.20
6379;DHT22;3222;48.858;10.128;2022-08-07T08:05:51;18.80;81.50
6379;DHT22;3222;48.858;10.128;2022-08-07T08:08:18;18.90;82.60
6379;DHT22;3222;48.858;10.128;2022-08-07T08:10:45;19.00;81.90
6379;DHT22;3222;48.858;10.128;2022-08-07T08:13:11;18.90;82.40
6379;DHT22;3222;48.858;10.128;2022-08-07T08:15:39;19.10;81.90
6379;DHT22;3222;48.858;10.128;2022-08-07T08:18:08;19.10;82.60
6379;DHT22;3222;48.858;10.128;2022-08-07T08:20:35;19.30;80.80
6379;DHT22;3222;48.858;10.128;2022-08-07T08:23:02;19.30;80.60
6379;DHT22;3222;48.858;10.128;2022-08-07T08:25:48;19.40;80.10
6379;DHT22;3222;48.858;10.128;2022-08-07T08:28:42;19.50;79.70
6379;DHT22;3222;48.858;10.128;2022-08-07T08:31:11;19.60;80.10
6379;DHT22;3222;48.858;10.128;2022-08-07T08:33:38;19.60;79.90
6379;DHT22;3222;48.858;10.128;2022-08-07T08:36:07;19.70;79.30
6379;DHT22;3222;48.858;10.128;2022-08-07T08:38:39;19.70;79.70
6379;DHT22;3222;48.858;10.128;2022-08-07T08:41:17;19.80;79.20
6379;DHT22;3222;48.858;10.128;2022-08-07T08:44:07;19.90;78.70
6379;DHT22;3222;48.858;10.128;2022-08-07T08:46:56;20.00;78.20
6379;DHT22;3222;48.858;10.128;2022-08-07T08:49:51;19.90;79.00
6379;DHT22;3222;48.858;10.128;2022-08-07T08:52:57;20.00;79.60
6379;DHT22;3222;48.858;10.128;2022-08-07T08:55:37;20.10;78.20
6379;DHT22;3222;48.858;10.128;2022-08-07T09:01:43;20.20;76.10
6379;DHT22;3222;48.858;10.128;2022-08-07T09:04:48;20.30;75.00
6379;DHT22;3222;48.858;10.128;2022-08-07T09:07:44;20.30;76.10
6379;DHT22;3222;48.858;10.128;2022-08-07T09:10:31;20.30;76.20
6379;DHT22;3222;48.858;10.128;2022-08-07T09:13:21;20.30;76.30
6379;DHT22;3222;48.858;10.128;2022-08-07T09:21:34;20.40;74.60
6379;DHT22;3222;48.858;10.128;2022-08-07T09:24:27;20.30;73.50
6379;DHT22;3222;48.858;10.128;2022-08-07T09:27:11;20.30;74.30
6379;DHT22;3222;48.858;10.128;2022-08-07T09:38:23;20.30;76.20
6379;DHT22;3222;48.858;10.128;2022-08-07T09:41:59;20.50;75.00
6379;DHT22;3222;48.858;10.128;2022-08-07T09:44:00;20.60;74.60
6379;DHT22;3222;48.858;10.128;2022-08-07T09:46:43;20.60;75.30
6379;DHT22;3222;48.858;10.128;2022-08-07T09:52:09;20.60;75.10
6379;DHT22;3222;48.858;10.128;2022-08-07T09:57:54;20.60;74.80
6379;DHT22;3222;48.858;10.128;2022-08-07T10:06:27;20.90;73.60
6379;DHT22;3222;48.858;10.128;2022-08-07T10:09:27;20.90;74.40
6379;DHT22;3222;48.858;10.128;2022-08-07T10:14:47;21.00;74.00
6379;DHT22;3222;48.858;10.128;2022-08-07T10:26:43;21.00;73.90
6379;DHT22;3222;48.858;10.128;2022-08-07T10:40:06;21.40;71.90
6379;DHT22;3222;48.858;10.128;2022-08-07T10:42:56;21.50;70.50
6379;DHT22;3222;48.858;10.128;2022-08-07T10:45:49;21.70;69.70
6379;DHT22;3222;48.858;10.128;2022-08-07T10:51:02;21.60;70.60
6379;DHT22;3222;48.858;10.128;2022-08-07T10:53:41;21.90;69.10
6379;DHT22;3222;48.858;10.128;2022-08-07T10:59:00;22.00;70.30
6379;DHT22;3222;48.858;10.128;2022-08-07T11:01:44;22.00;69.50
6379;DHT22;3222;48.858;10.128;2022-08-07T11:09:57;22.00;69.30
6379;DHT22;3222;48.858;10.128;2022-08-07T11:12:29;22.10;70.40
6379;DHT22;3222;48.858;10.128;2022-08-07T11:15:05;22.10;70.40
6379;DHT22;3222;48.858;10.128;2022-08-07T11:17:42;22.20;70.10
6379;DHT22;3222;48.858;10.128;2022-08-07T11:20:23;22.20;69.40
6379;DHT22;3222;48.858;10.128;2022-08-07T11:23:13;22.20;68.90
6379;DHT22;3222;48.858;10.128;2022-08-07T11:25:57;22.40;68.30
6379;DHT22;3222;48.858;10.128;2022-08-07T11:31:22;22.50;68.50
6379;DHT22;3222;48.858;10.128;2022-08-07T11:37:00;22.80;68.50
6379;DHT22;3222;48.858;10.128;2022-08-07T11:48:06;23.10;67.90
6379;DHT22;3222;48.858;10.128;2022-08-07T11:54:18;23.30;67.40
6379;DHT22;3222;48.858;10.128;2022-08-07T11:57:05;23.40;66.40
6379;DHT22;3222;48.858;10.128;2022-08-07T12:10:34;23.70;66.30
6379;DHT22;3222;48.858;10.128;2022-08-07T12:13:05;23.60;66.00
6379;DHT22;3222;48.858;10.128;2022-08-07T12:15:40;23.60;67.30
6379;DHT22;3222;48.858;10.128;2022-08-07T12:18:24;23.70;67.40
6379;DHT22;3222;48.858;10.128;2022-08-07T12:21:22;23.80;68.10
6379;DHT22;3222;48.858;10.128;2022-08-07T12:24:00;23.90;66.90
6379;DHT22;3222;48.858;10.128;2022-08-07T12:26:37;23.90;62.90
6379;DHT22;3222;48.858;10.128;2022-08-07T12:32:20;24.00;65.00
6379;DHT22;3222;48.858;10.128;2022-08-07T12:34:47;24.10;66.70
6379;DHT22;3222;48.858;10.128;2022-08-07T12:37:14;24.20;65.60
6379;DHT22;3222;48.858;10.128;2022-08-07T12:39:45;24.20;65.20
6379;DHT22;3222;48.858;10.128;2022-08-07T12:42:12;24.20;64.60
6379;DHT22;3222;48.858;10.128;2022-08-07T12:44:43;24.20;66.20
6379;DHT22;3222;48.858;10.128;2022-08-07T12:53:03;24.60;64.70
6379;DHT22;3222;48.858;10.128;2022-08-07T12:55:39;24.60;65.00
6379;DHT22;3222;48.858;10.128;2022-08-07T12:58:06;24.70;65.50
6379;DHT22;3222;48.858;10.128;2022-08-07T13:09:10;25.10;63.10
6379;DHT22;3222;48.858;10.128;2022-08-07T13:14:30;25.20;63.00
6379;DHT22;3222;48.858;10.128;2022-08-07T13:17:09;25.20;61.40
6379;DHT22;3222;48.858;10.128;2022-08-07T13:22:25;25.10;63.80
6379;DHT22;3222;48.858;10.128;2022-08-07T13:25:11;25.20;63.60
6379;DHT22;3222;48.858;10.128;2022-08-07T13:27:41;25.40;63.80
6379;DHT22;3222;48.858;10.128;2022-08-07T13:30:10;25.60;63.10
6379;DHT22;3222;48.858;10.128;2022-08-07T13:38:12;25.70;62.50
6379;DHT22;3222;48.858;10.128;2022-08-07T13:43:45;25.80;63.30
6379;DHT22;3222;48.858;10.128;2022-08-07T13:46:14;25.80;63.40
6379;DHT22;3222;48.858;10.128;2022-08-07T13:48:47;25.90;62.90
6379;DHT22;3222;48.858;10.128;2022-08-07T13:51:15;26.00;61.50
6379;DHT22;3222;48.858;10.128;2022-08-07T13:53:50;26.00;61.70
6379;DHT22;3222;48.858;10.128;2022-08-07T13:56:20;26.00;61.10
6379;DHT22;3222;48.858;10.128;2022-08-07T13:58:47;26.10;60.70
6379;DHT22;3222;48.858;10.128;2022-08-07T14:01:32;26.10;60.30
6379;DHT22;3222;48.858;10.128;2022-08-07T14:04:06;26.20;61.30
6379;DHT22;3222;48.858;10.128;2022-08-07T14:06:34;26.30;61.50
6379;DHT22;3222;48.858;10.128;2022-08-07T14:09:02;26.40;61.70
6379;DHT22;3222;48.858;10.128;2022-08-07T14:11:30;26.30;60.00
6379;DHT22;3222;48.858;10.128;2022-08-07T14:14:03;26.20;60.80
6379;DHT22;3222;48.858;10.128;2022-08-07T14:16:40;26.10;62.40
6379;DHT22;3222;48.858;10.128;2022-08-07T14:19:36;26.10;62.20
6379;DHT22;3222;48.858;10.128;2022-08-07T14:22:05;26.20;60.10
6379;DHT22;3222;48.858;10.128;2022-08-07T14:24:45;26.30;60.80
6379;DHT22;3222;48.858;10.128;2022-08-07T14:27:14;26.30;59.20
6379;DHT22;3222;48.858;10.128;2022-08-07T14:29:45;26.30;60.00
6379;DHT22;3222;48.858;10.128;2022-08-07T14:32:12;26.30;60.90
6379;DHT22;3222;48.858;10.128;2022-08-07T14:34:44;26.40;60.00
6379;DHT22;3222;48.858;10.128;2022-08-07T14:37:12;26.40;59.90
6379;DHT22;3222;48.858;10.128;2022-08-07T14:39:41;26.50;60.20
6379;DHT22;3222;48.858;10.128;2022-08-07T14:42:09;26.60;59.50
6379;DHT22;3222;48.858;10.128;2022-08-07T14:44:57;26.60;60.10
6379;DHT22;3222;48.858;10.128;2022-08-07T14:47:24;26.70;60.40
6379;DHT22;3222;48.858;10.128;2022-08-07T14:49:52;26.70;59.30
6379;DHT22;3222;48.858;10.128;2022-08-07T14:52:18;26.60;58.50
6379;DHT22;3222;48.858;10.128;2022-08-07T14:54:48;26.50;59.10
6379;DHT22;3222;48.858;10.128;2022-08-07T14:57:16;26.40;59.70
6379;DHT22;3222;48.858;10.128;2022-08-07T14:59:44;26.40;58.80
6379;DHT22;3222;48.858;10.128;2022-08-07T15:02:13;26.30;59.50
6379;DHT22;3222;48.858;10.128;2022-08-07T15:04:42;26.20;59.50
6379;DHT22;3222;48.858;10.128;2022-08-07T15:07:10;26.30;59.60
6379;DHT22;3222;48.858;10.128;2022-08-07T15:09:40;26.30;59.60
6379;DHT22;3222;48.858;10.128;2022-08-07T15:12:18;26.30;60.60
6379;DHT22;3222;48.858;10.128;2022-08-07T15:14:49;26.30;59.20
6379;DHT22;3222;48.858;10.128;2022-08-07T15:17:18;26.30;60.00
6379;DHT22;3222;48.858;10.128;2022-08-07T15:19:53;26.30;59.30
6379;DHT22;3222;48.858;10.128;2022-08-07T15:22:28;26.20;60.00
6379;DHT22;3222;48.858;10.128;2022-08-07T15:24:56;26.10;59.40
6379;DHT22;3222;48.858;10.128;2022-08-07T15:27:24;26.10;59.70
6379;DHT22;3222;48.858;10.128;2022-08-07T15:29:58;26.00;59.90
6379;DHT22;3222;48.858;10.128;2022-08-07T15:32:25;25.90;59.80
6379;DHT22;3222;48.858;10.128;2022-08-07T15:34:53;25.70;60.20
6379;DHT22;3222;48.858;10.128;2022-08-07T15:37:23;25.50;60.30
6379;DHT22;3222;48.858;10.128;2022-08-07T15:39:53;25.50;59.20
6379;DHT22;3222;48.858;10.128;2022-08-07T15:45:08;25.50;59.70
6379;DHT22;3222;48.858;10.128;2022-08-07T15:47:39;25.40;59.00
6379;DHT22;3222;48.858;10.128;2022-08-07T15:50:10;25.30;59.50
6379;DHT22;3222;48.858;10.128;2022-08-07T15:52:38;25.30;60.20
6379;DHT22;3222;48.858;10.128;2022-08-07T15:55:08;25.20;61.20
6379;DHT22;3222;48.858;10.128;2022-08-07T15:57:35;25.20;60.90
6379;DHT22;3222;48.858;10.128;2022-08-07T16:00:03;25.20;61.00
6379;DHT22;3222;48.858;10.128;2022-08-07T16:02:42;25.00;61.50
6379;DHT22;3222;48.858;10.128;2022-08-07T16:05:12;24.90;62.00
6379;DHT22;3222;48.858;10.128;2022-08-07T16:07:46;24.90;61.90
6379;DHT22;3222;48.858;10.128;2022-08-07T16:10:20;24.90;62.00
6379;DHT22;3222;48.858;10.128;2022-08-07T16:20:37;24.80;61.90
6379;DHT22;3222;48.858;10.128;2022-08-07T16:23:26;24.80;61.30
6379;DHT22;3222;48.858;10.128;2022-08-07T16:34:25;24.60;60.90
6379;DHT22;3222;48.858;10.128;2022-08-07T16:40:21;24.30;62.50
6379;DHT22;3222;48.858;10.128;2022-08-07T16:43:05;24.30;61.60
6379;DHT22;3222;48.858;10.128;2022-08-07T16:51:49;24.30;61.80
6379;DHT22;3222;48.858;10.128;2022-08-07T16:54:49;24.30;61.40
6379;DHT22;3222;48.858;10.128;2022-08-07T16:57:30;24.30;61.20
6379;DHT22;3222;48.858;10.128;2022-08-07T17:00:04;24.20;61.40
6379;DHT22;3222;48.858;10.128;2022-08-07T17:07:56;24.00;62.40
6379;DHT22;3222;48.858;10.128;2022-08-07T17:15:47;24.00;62.20
6379;DHT22;3222;48.858;10.128;2022-08-07T17:21:13;23.80;62.50
6379;DHT22;3222;48.858;10.128;2022-08-07T17:32:27;23.70;62.50
6379;DHT22;3222;48.858;10.128;2022-08-07T17:34:56;23.70;61.90
6379;DHT22;3222;48.858;10.128;2022-08-07T17:37:33;23.60;61.80
6379;DHT22;3222;48.858;10.128;2022-08-07T17:43:00;23.50;64.10
6379;DHT22;3222;48.858;10.128;2022-08-07T17:45:53;23.40;64.50
6379;DHT22;3222;48.858;10.128;2022-08-07T17:48:22;23.30;64.70
6379;DHT22;3222;48.858;10.128;2022-08-07T17:51:08;23.40;64.50
6379;DHT22;3222;48.858;10.128;2022-08-07T17:54:10;23.30;65.40
6379;DHT22;3222;48.858;10.128;2022-08-07T17:56:44;23.20;64.20
6379;DHT22;3222;48.858;10.128;2022-08-07T17:59:21;23.30;65.30
6379;DHT22;3222;48.858;10.128;2022-08-07T18:02:06;23.30;64.10
6379;DHT22;3222;48.858;10.128;2022-08-07T18:04:43;23.20;65.10
6379;DHT22;3222;48.858;10.128;2022-08-07T18:07:27;23.20;65.50
6379;DHT22;3222;48.858;10.128;2022-08-07T18:09:59;23.20;64.30
6379;DHT22;3222;48.858;10.128;2022-08-07T18:13:09;23.10;63.80
6379;DHT22;3222;48.858;10.128;2022-08-07T18:18:11;23.10;64.40
6379;DHT22;3222;48.858;10.128;2022-08-07T18:20:42;23.00;63.80
6379;DHT22;3222;48.858;10.128;2022-08-07T18:26:03;22.80;61.90
6379;DHT22;3222;48.858;10.128;2022-08-07T18:28:45;22.80;63.90
6379;DHT22;3222;48.858;10.128;2022-08-07T18:31:34;22.80;64.10
6379;DHT22;3222;48.858;10.128;2022-08-07T18:37:18;22.80;63.70
6379;DHT22;3222;48.858;10.128;2022-08-07T18:39:59;22.70;64.40
6379;DHT22;3222;48.858;10.128;2022-08-07T18:42:48;22.70;64.90
6379;DHT22;3222;48.858;10.128;2022-08-07T18:45:26;22.60;64.80
6379;DHT22;3222;48.858;10.128;2022-08-07T18:48:04;22.60;64.60
6379;DHT22;3222;48.858;10.128;2022-08-07T18:56:32;22.20;66.00
6379;DHT22;3222;48.858;10.128;2022-08-07T19:02:14;22.10;67.00
6379;DHT22;3222;48.858;10.128;2022-08-07T19:05:11;22.00;67.00
6379;DHT22;3222;48.858;10.128;2022-08-07T19:10:20;21.80;67.20
6379;DHT22;3222;48.858;10.128;2022-08-07T19:13:03;21.80;66.20
6379;DHT22;3222;48.858;10.128;2022-08-07T19:16:08;21.70;66.50
6379;DHT22;3222;48.858;10.128;2022-08-07T19:23:50;21.60;67.00
6379;DHT22;3222;48.858;10.128;2022-08-07T19:26:19;21.50;67.70
6379;DHT22;3222;48.858;10.128;2022-08-07T19:28:54;21.50;67.40
6379;DHT22;3222;48.858;10.128;2022-08-07T19:31:28;21.40;67.10
6379;DHT22;3222;48.858;10.128;2022-08-07T19:33:56;21.30;65.70
6379;DHT22;3222;48.858;10.128;2022-08-07T19:36:25;21.20;66.20
6379;DHT22;3222;48.858;10.128;2022-08-07T19:38:54;21.10;63.70
6379;DHT22;3222;48.858;10.128;2022-08-07T19:41:26;21.10;65.90
6379;DHT22;3222;48.858;10.128;2022-08-07T19:43:58;21.20;65.40
6379;DHT22;3222;48.858;10.128;2022-08-07T19:46:30;21.20;65.70